Time;durP1;ratioP1;P1;durP2;ratioP2;P2;SDS_P1;SDS_P2;PMS_P1;PMS_P2;Temp;Humidity;BMP_temperature;BMP_pressure;BME280_temperature;BME280_humidity;BME280_pressure;Samples;Min_cycle;Max_cycle;Signal;HPM_P1;HPM_P2
2022/04/28 00:00:36;;;;;;;12.28;6.22;;;;;;;11.64;79.67;99159.44;1620181;88;21078;-80
2022/04/28 00:03:05;;;;;;;11.35;6.12;;;;;;;11.64;79.39;99154.66;1609498;88;21055;-82
2022/04/28 00:05:32;;;;;;;15.72;6.30;;;;;;;11.66;79.09;99155.04;1591090;90;21508;-81
2022/04/28 00:07:59;;;;;;;11.55;5.60;;;;;;;11.66;79.14;99140.72;1594146;90;21124;-82
2022/04/28 00:10:26;;;;;;;11.08;5.90;;;;;;;11.69;78.44;99140.61;1583783;90;21060;-80
2022/04/28 00:12:53;;;;;;;9.73;5.97;;;;;;;11.63;78.66;99127.77;1600987;90;21072;-82
2022/04/28 00:15:19;;;;;;;10.30;5.83;;;;;;;11.62;78.78;99131.28;1599422;89;21048;-81
2022/04/28 00:17:46;;;;;;;9.55;5.25;;;;;;;11.55;79.06;99122.78;1592513;89;21037;-82
2022/04/28 00:20:13;;;;;;;9.93;5.75;;;;;;;11.55;78.32;99114.97;1593384;89;21032;-81
2022/04/28 00:22:40;;;;;;;9.70;4.72;;;;;;;11.50;78.24;99103.00;1606442;89;21049;-81
2022/04/28 00:25:07;;;;;;;8.33;4.60;;;;;;;11.45;77.80;99099.66;1607636;88;21057;-81
2022/04/28 00:27:34;;;;;;;8.63;4.42;;;;;;;11.40;78.69;99092.42;1606793;89;21093;-82
2022/04/28 00:30:01;;;;;;;7.28;4.30;;;;;;;11.36;78.95;99082.57;1606201;89;21418;-82
2022/04/28 00:32:28;;;;;;;8.25;3.65;;;;;;;11.33;79.19;99091.30;1592671;89;21051;-82
2022/04/28 00:34:56;;;;;;;9.73;4.60;;;;;;;11.33;79.50;99099.11;1595150;90;21134;-81
2022/04/28 00:37:23;;;;;;;8.83;3.95;;;;;;;11.37;78.46;99105.55;1575938;90;21078;-82
2022/04/28 00:39:51;;;;;;;7.62;4.40;;;;;;;11.37;79.50;99099.88;1594861;90;21081;-82
2022/04/28 00:42:19;;;;;;;7.87;4.65;;;;;;;11.40;78.20;99098.93;1597008;90;21160;-81
2022/04/28 00:44:46;;;;;;;7.58;4.40;;;;;;;11.40;79.21;99102.84;1596962;90;20994;-81
2022/04/28 00:47:14;;;;;;;6.42;3.67;;;;;;;11.40;79.50;99091.12;1603510;89;21048;-80
2022/04/28 00:52:30;;;;;;;7.83;4.28;;;;;;;11.34;80.61;99070.89;1598001;89;21056;-82
2022/04/28 00:54:58;;;;;;;7.58;4.20;;;;;;;11.30;80.90;99066.67;1578877;90;21066;-82
2022/04/28 00:57:28;;;;;;;10.30;4.30;;;;;;;11.28;79.71;99071.08;1592954;89;21039;-82
2022/04/28 00:59:55;;;;;;;8.28;4.45;;;;;;;11.23;81.46;99070.34;1594249;90;21049;-82
2022/04/28 01:02:21;;;;;;;8.58;4.70;;;;;;;11.22;80.84;99070.38;1593420;89;21078;-81
2022/04/28 01:04:48;;;;;;;7.67;4.22;;;;;;;11.19;80.68;99084.79;1585020;88;21604;-81
2022/04/28 01:07:17;;;;;;;8.33;4.58;;;;;;;11.17;80.68;99088.73;1610776;88;21086;-81
2022/04/28 01:09:44;;;;;;;8.80;4.20;;;;;;;11.15;81.80;99100.47;1596685;88;21048;-82
2022/04/28 01:12:15;;;;;;;8.38;4.40;;;;;;;11.18;79.86;99096.95;1597520;88;21104;-82
2022/04/28 01:14:45;;;;;;;7.40;4.42;;;;;;;11.12;80.07;99091.47;1600405;88;21738;-82
2022/04/28 01:17:13;;;;;;;7.28;4.37;;;;;;;11.10;80.99;99097.58;1603263;88;21570;-80
2022/04/28 01:19:41;;;;;;;8.25;4.42;;;;;;;11.09;80.53;99099.80;1612133;88;21092;-82
2022/04/28 01:22:09;;;;;;;8.80;4.65;;;;;;;11.10;80.55;99102.36;1604203;89;21030;-81
2022/04/28 01:24:36;;;;;;;11.30;4.47;;;;;;;11.17;80.88;99112.14;1602662;89;21060;-82
2022/04/28 01:27:07;;;;;;;7.95;4.05;;;;;;;11.24;80.71;99111.52;1597788;89;21033;-82
2022/04/28 01:29:35;;;;;;;7.45;4.65;;;;;;;11.32;80.95;99114.76;1606362;89;21084;-82
2022/04/28 01:32:02;;;;;;;8.18;4.42;;;;;;;11.34;79.69;99121.65;1606016;89;21112;-82
2022/04/28 01:34:31;;;;;;;6.92;4.30;;;;;;;11.39;80.64;99114.16;1600445;88;21043;-81
2022/04/28 01:36:57;;;;;;;6.90;4.58;;;;;;;11.45;80.40;99110.08;1595004;89;21596;-82
2022/04/28 01:39:24;;;;;;;14.25;5.67;;;;;;;11.48;80.31;99108.67;1603913;89;21086;-81
2022/04/28 01:41:51;;;;;;;11.08;4.92;;;;;;;11.52;81.14;99105.11;1577531;90;21054;-82
2022/04/28 01:44:18;;;;;;;8.23;4.58;;;;;;;11.55;79.98;99117.57;1607745;89;21076;-82
2022/04/28 01:46:45;;;;;;;7.00;4.40;;;;;;;11.55;80.56;99114.97;1607605;89;21068;-82
2022/04/28 01:49:28;;;;;;;;;;;;;;;11.59;80.79;99124.85;1525057;94;21095;-82
2022/04/28 01:54:58;;;;;;;7.10;4.33;;;;;;;11.64;81.04;99131.22;1589561;89;21015;-82
2022/04/28 01:57:44;;;;;;;8.18;4.42;;;;;;;11.67;81.74;99116.82;1598016;89;21050;-82
2022/04/28 02:00:21;;;;;;;8.60;5.20;;;;;;;11.69;81.79;99131.50;1602710;89;21079;-82
2022/04/28 02:02:50;;;;;;;7.75;4.75;;;;;;;11.69;80.50;99131.95;1607905;88;21088;-82
2022/04/28 02:05:16;;;;;;;9.83;5.03;;;;;;;11.68;80.60;99133.71;1607515;89;21640;-82
2022/04/28 02:07:44;;;;;;;8.43;4.67;;;;;;;11.66;79.31;99132.06;1606245;89;21161;-82
2022/04/28 02:10:11;;;;;;;8.98;4.80;;;;;;;11.64;80.83;99131.22;1598310;90;21063;-82
2022/04/28 02:12:39;;;;;;;8.98;4.97;;;;;;;11.63;80.15;99132.98;1598092;89;21111;-81
2022/04/28 02:15:10;;;;;;;8.50;5.10;;;;;;;11.59;80.97;99135.27;1584749;89;21104;-81
2022/04/28 02:17:55;;;;;;;9.20;4.47;;;;;;;11.59;80.70;99137.03;1580477;90;21107;-82
2022/04/28 02:20:22;;;;;;;8.30;4.62;;;;;;;11.53;79.91;99131.08;1580561;90;21087;-82
2022/04/28 02:22:49;;;;;;;8.43;4.40;;;;;;;11.48;82.59;99132.98;1581397;90;21040;-81
2022/04/28 02:25:17;;;;;;;13.98;6.37;;;;;;;11.47;82.94;99139.06;1583991;90;21034;-82
2022/04/28 02:27:45;;;;;;;12.50;5.70;;;;;;;11.49;81.43;99146.39;1587157;90;21063;-82
2022/04/28 02:30:12;;;;;;;12.37;5.80;;;;;;;11.50;81.87;99135.55;1586612;90;21099;-81
2022/04/28 02:35:25;;;;;;;16.40;7.03;;;;;;;11.52;82.88;99125.94;1596322;89;21042;-82
2022/04/28 02:37:53;;;;;;;16.25;7.17;;;;;;;11.55;82.30;99120.62;1593331;90;21550;-81
2022/04/28 02:40:20;;;;;;;11.63;6.00;;;;;;;11.56;81.62;99123.66;1574966;90;21085;-82
2022/04/28 02:42:47;;;;;;;10.68;5.75;;;;;;;11.56;81.91;99118.45;1574643;90;21029;-82
2022/04/28 02:45:13;;;;;;;7.83;4.60;;;;;;;11.55;82.98;99116.72;1583604;90;21066;-82
2022/04/28 02:47:42;;;;;;;8.58;4.95;;;;;;;11.59;83.39;99122.70;1592449;89;21580;-80
2022/04/28 02:50:12;;;;;;;13.48;5.22;;;;;;;11.62;82.86;99119.57;1592709;90;21113;-82
2022/04/28 02:52:41;;;;;;;7.75;4.20;;;;;;;11.65;82.31;99124.67;1589938;89;20984;-83
2022/04/28 02:55:08;;;;;;;8.75;4.92;;;;;;;11.65;83.30;99128.58;1579806;89;21087;-82
2022/04/28 02:57:36;;;;;;;7.87;4.78;;;;;;;11.67;83.83;99133.30;1581058;91;21012;-83
2022/04/28 03:00:06;;;;;;;8.15;4.70;;;;;;;11.70;83.50;99133.67;1555438;92;21032;-82
2022/04/28 03:02:35;;;;;;;10.75;5.17;;;;;;;11.70;83.72;99142.33;1592696;89;21097;-81
2022/04/28 03:05:04;;;;;;;8.08;4.85;;;;;;;11.71;83.31;99141.42;1591756;90;21081;-81
2022/04/28 03:13:02;;;;;;;11.03;4.40;;;;;;;11.77;82.91;99149.97;1590655;90;21092;-83
2022/04/28 03:15:31;;;;;;;9.45;5.33;;;;;;;11.74;83.61;99153.52;1573760;90;21051;-85
2022/04/28 03:17:57;;;;;;;11.57;5.72;;;;;;;11.72;84.77;99165.28;1591162;90;21035;-86
2022/04/28 03:20:24;;;;;;;10.30;5.42;;;;;;;11.69;85.80;99157.54;1591440;87;21059;-86
2022/04/28 03:22:51;;;;;;;10.88;5.78;;;;;;;11.65;87.95;99159.83;1591210;87;21079;-85
2022/04/28 03:25:17;;;;;;;10.23;6.40;;;;;;;11.64;87.08;99159.44;1573957;88;21102;-86
2022/04/28 03:27:44;;;;;;;10.50;6.08;;;;;;;11.55;89.68;99162.29;1606094;83;21121;-85
2022/04/28 03:30:12;;;;;;;17.23;6.55;;;;;;;11.54;88.81;99164.50;1700309;82;21056;-85
2022/04/28 03:32:57;;;;;;;13.35;5.78;;;;;;;11.50;90.11;99160.28;1669132;85;21088;-85
2022/04/28 03:35:24;;;;;;;10.65;6.00;;;;;;;11.49;91.66;99165.06;1669335;85;21097;-86
2022/04/28 03:37:50;;;;;;;10.20;5.03;;;;;;;11.49;90.82;99170.27;1669186;84;21046;-86
2022/04/28 03:40:18;;;;;;;9.93;5.33;;;;;;;11.49;89.57;99163.77;1669188;85;21049;-85
2022/04/28 03:42:46;;;;;;;10.60;5.08;;;;;;;11.46;89.93;99166.44;1696984;84;21035;-85
2022/04/28 03:45:14;;;;;;;7.92;4.53;;;;;;;11.44;91.30;99173.44;1668161;86;21005;-85
2022/04/28 03:47:42;;;;;;;10.88;5.65;;;;;;;11.43;92.25;99170.45;1668117;86;20944;-86
2022/04/28 03:50:09;;;;;;;6.55;3.80;;;;;;;11.40;91.00;99183.53;1667859;85;21090;-85
2022/04/28 03:52:37;;;;;;;8.10;4.37;;;;;;;11.35;92.91;99175.86;1633243;88;21034;-84
2022/04/28 03:55:05;;;;;;;9.53;4.65;;;;;;;11.30;94.64;99186.40;1629636;85;21038;-85
2022/04/28 03:57:32;;;;;;;7.00;4.10;;;;;;;11.34;93.07;99186.72;1629742;85;21076;-84
2022/04/28 03:59:59;;;;;;;10.43;4.60;;;;;;;11.32;93.77;99190.23;1629572;86;21073;-84
2022/04/28 04:02:29;;;;;;;9.65;4.40;;;;;;;11.32;93.62;99192.84;1628238;88;21062;-85
2022/04/28 04:04:55;;;;;;;7.65;4.30;;;;;;;11.33;93.20;99195.86;1629469;87;21028;-83
2022/04/28 04:07:22;;;;;;;12.28;4.33;;;;;;;11.33;93.59;99194.56;1629493;88;21078;-83
2022/04/28 04:09:56;;;;;;;8.73;4.15;;;;;;;11.29;94.10;99198.99;1605794;88;21086;-84
2022/04/28 04:12:28;;;;;;;10.40;4.60;;;;;;;11.32;93.68;99218.87;1604588;88;21106;-84
2022/04/28 04:14:58;;;;;;;10.00;4.58;;;;;;;11.31;93.31;99211.52;1624860;88;21098;-83
2022/04/28 04:17:26;;;;;;;7.67;3.45;;;;;;;11.32;93.55;99213.23;1627700;88;21064;-85
2022/04/28 04:19:53;;;;;;;5.35;2.87;;;;;;;11.23;94.26;99209.56;1628013;86;21070;-89
2022/04/28 04:22:19;;;;;;;5.10;2.75;;;;;;;11.13;95.14;99214.60;1694311;85;21561;-88
2022/04/28 04:24:46;;;;;;;6.90;2.58;;;;;;;11.10;93.78;99214.66;1694141;84;21042;-89
2022/04/28 04:27:15;;;;;;;6.35;2.37;;;;;;;11.01;93.88;99220.97;1721669;81;21554;-89
2022/04/28 04:32:17;;;;;;;5.78;2.22;;;;;;;10.90;95.06;99222.55;1743335;81;21012;-86
2022/04/28 04:32:38;;;;;;;6.33;2.15;;;;;;;10.90;94.18;99217.77;1734106;83;21031;-84
2022/04/28 04:35:07;;;;;;;7.30;2.60;;;;;;;10.83;94.65;99229.22;1714926;83;21064;-89
2022/04/28 04:37:36;;;;;;;7.22;2.80;;;;;;;10.81;94.32;99231.02;1693137;85;21032;-85
2022/04/28 04:40:03;;;;;;;6.15;2.98;;;;;;;10.76;95.31;99231.09;1664387;85;21047;-85
2022/04/28 04:42:30;;;;;;;5.95;2.00;;;;;;;10.72;95.47;99229.04;1664446;85;21013;-85
2022/04/28 04:44:58;;;;;;;6.15;2.72;;;;;;;10.72;94.97;99229.04;1668184;84;21622;-88
2022/04/28 04:47:27;;;;;;;4.83;2.25;;;;;;;10.75;95.40;99232.84;1701660;81;21068;-88
2022/04/28 04:49:55;;;;;;;6.22;2.30;;;;;;;10.71;95.47;99235.11;1689508;84;21124;-85
2022/04/28 04:52:24;;;;;;;5.42;1.72;;;;;;;10.70;94.80;99232.13;1691756;84;21059;-85
2022/04/28 04:58:23;;;;;;;2.60;1.40;;;;;;;10.67;95.16;99226.13;1692182;85;21061;-85
2022/04/28 05:00:49;;;;;;;2.35;1.10;;;;;;;10.66;94.71;99224.41;1681668;84;21023;-85
2022/04/28 05:03:25;;;;;;;2.98;1.10;;;;;;;10.66;94.47;99217.45;1696326;85;21047;-84
2022/04/28 05:06:10;;;;;;;1.55;1.00;;;;;;;10.70;93.72;99222.14;1653372;86;21031;-85
2022/04/28 05:08:39;;;;;;;2.10;1.00;;;;;;;10.73;93.64;99228.59;1670576;82;21111;-84
2022/04/28 05:11:10;;;;;;;2.55;1.02;;;;;;;10.76;93.31;99222.00;1684116;83;21080;-85
2022/04/28 05:13:39;;;;;;;1.55;0.90;;;;;;;10.79;92.92;99219.34;1652558;85;21102;-84
2022/04/28 05:16:07;;;;;;;3.10;1.15;;;;;;;10.82;92.97;99216.64;1645275;87;21111;-84
2022/04/28 05:18:38;;;;;;;1.95;1.00;;;;;;;10.89;92.03;99219.52;1645753;87;21329;-83
2022/04/28 05:21:07;;;;;;;2.50;0.93;;;;;;;10.94;91.59;99218.09;1647666;87;21051;-85
2022/04/28 05:23:38;;;;;;;3.17;0.85;;;;;;;10.93;91.25;99215.10;1623990;87;20992;-83
2022/04/28 05:26:06;;;;;;;1.85;1.00;;;;;;;11.00;90.91;99203.66;1607852;88;21016;-83
2022/04/28 05:28:52;;;;;;;2.15;0.90;;;;;;;10.99;90.77;99201.09;1627385;87;21121;-83
2022/04/28 05:31:18;;;;;;;1.10;0.80;;;;;;;11.04;90.15;99215.70;1623000;88;21053;-83
2022/04/28 05:34:05;;;;;;;1.10;0.80;;;;;;;11.03;90.37;99228.73;1631236;87;20991;-84
2022/04/28 05:36:41;;;;;;;1.00;0.80;;;;;;;11.08;89.86;99232.94;1636454;85;21558;-83
2022/04/28 05:39:07;;;;;;;1.35;1.00;;;;;;;11.15;89.53;99244.04;1630578;87;21061;-83
2022/04/28 05:41:36;;;;;;;2.08;0.90;;;;;;;11.20;88.94;99234.38;1621470;87;21079;-83
2022/04/28 05:46:47;;;;;;;1.20;0.90;;;;;;;11.17;88.83;99247.45;1601557;88;21021;-83
2022/04/28 05:49:14;;;;;;;1.72;1.10;;;;;;;11.18;88.89;99258.29;1616260;88;21147;-83
2022/04/28 05:51:42;;;;;;;1.45;0.95;;;;;;;11.21;88.33;99263.85;1597521;88;21096;-82
2022/04/28 05:54:10;;;;;;;2.33;1.00;;;;;;;11.23;88.25;99274.63;1626589;88;21067;-81
2022/04/28 05:56:38;;;;;;;2.42;1.02;;;;;;;11.27;87.70;99274.11;1631917;86;21068;-82
2022/04/28 05:59:06;;;;;;;2.75;1.00;;;;;;;11.29;87.59;99266.66;1664839;86;21143;-83
2022/04/28 06:01:38;;;;;;;4.22;0.90;;;;;;;11.29;87.39;99278.38;1644603;87;21040;-82
2022/04/28 06:04:06;;;;;;;1.37;1.00;;;;;;;11.37;86.98;99275.58;1689822;85;21052;-82
2022/04/28 06:06:34;;;;;;;1.45;1.02;;;;;;;11.35;86.70;99276.91;1690055;85;21021;-80
2022/04/28 06:09:02;;;;;;;0.68;0.65;;;;;;;11.33;86.28;99276.55;1704348;83;21004;-84
2022/04/28 06:11:30;;;;;;;1.47;1.35;;;;;;;11.33;85.51;99281.76;1653247;84;20995;-85
2022/04/28 06:13:57;;;;;;;1.10;0.80;;;;;;;11.35;84.89;99289.93;1661558;83;21033;-82
2022/04/28 06:16:43;;;;;;;1.57;1.17;;;;;;;11.38;84.92;99289.02;1684966;82;21147;-87
2022/04/28 06:19:11;;;;;;;2.02;1.00;;;;;;;11.31;84.35;99293.50;1670277;84;21036;-82
2022/04/28 06:21:57;;;;;;;1.70;1.20;;;;;;;11.39;84.73;99293.31;1668843;85;21071;-81
2022/04/28 06:24:26;;;;;;;2.52;1.10;;;;;;;11.47;84.13;99301.78;1683119;84;21740;-80
2022/04/28 06:26:53;;;;;;;1.45;0.98;;;;;;;11.41;83.98;99294.13;1667974;85;21024;-81
2022/04/28 06:29:20;;;;;;;2.62;1.30;;;;;;;11.38;84.05;99299.43;1652639;86;21000;-82
2022/04/28 06:31:47;;;;;;;2.45;1.42;;;;;;;11.44;84.17;99293.19;1657241;85;21650;-78
2022/04/28 06:34:19;;;;;;;2.20;1.10;;;;;;;11.47;84.16;99295.27;1621614;86;21079;-79
2022/04/28 06:36:46;;;;;;;2.33;1.35;;;;;;;11.50;83.53;99290.45;1657243;85;21544;-80
2022/04/28 06:39:15;;;;;;;2.12;1.30;;;;;;;11.63;83.38;99294.43;1663840;85;21024;-79
2022/04/28 06:41:44;;;;;;;9.15;1.47;;;;;;;11.67;82.67;99294.75;1661470;85;21005;-78
2022/04/28 06:44:12;;;;;;;5.20;1.40;;;;;;;11.79;82.22;99300.55;1662031;85;21049;-79
2022/04/28 06:46:53;;;;;;;4.10;1.52;;;;;;;11.76;82.43;99301.49;1659862;85;21006;-79
2022/04/28 06:49:38;;;;;;;5.03;1.47;;;;;;;11.86;82.37;99301.64;1646076;85;21528;-78
2022/04/28 06:52:23;;;;;;;2.27;1.10;;;;;;;11.93;82.52;99307.11;1664241;85;21077;-80
2022/04/28 06:55:11;;;;;;;1.72;1.20;;;;;;;12.05;82.18;99305.08;1671283;85;21005;-80
2022/04/28 06:57:39;;;;;;;2.40;1.15;;;;;;;12.16;82.04;99311.31;1651094;85;21092;-80
2022/04/28 07:00:12;;;;;;;2.58;1.30;;;;;;;12.24;81.50;99311.48;1656746;85;21042;-81
2022/04/28 07:02:40;;;;;;;4.05;1.35;;;;;;;12.33;81.31;99314.27;1660626;85;21138;-80
2022/04/28 07:05:07;;;;;;;3.37;1.35;;;;;;;12.42;80.72;99311.41;1661386;85;21007;-80
2022/04/28 07:07:34;;;;;;;5.28;1.70;;;;;;;12.46;80.37;99303.89;1655656;85;21089;-80
2022/04/28 07:10:01;;;;;;;2.33;1.47;;;;;;;12.60;80.45;99307.40;1655418;85;21016;-81
2022/04/28 07:12:29;;;;;;;3.90;1.30;;;;;;;12.65;79.14;99306.83;1613852;86;21061;-79
2022/04/28 07:14:59;;;;;;;2.80;1.20;;;;;;;12.73;78.67;99311.35;1631330;86;21516;-80
2022/04/28 07:17:44;;;;;;;3.05;1.52;;;;;;;12.67;77.78;99310.23;1637499;86;21088;-81
2022/04/28 07:20:11;;;;;;;1.55;1.00;;;;;;;12.69;78.33;99311.05;1640934;86;21029;-79
2022/04/28 07:22:40;;;;;;;2.12;1.30;;;;;;;12.68;77.43;99321.52;1653067;85;21026;-81
2022/04/28 07:25:08;;;;;;;1.75;1.07;;;;;;;12.75;77.31;99313.89;1652731;85;21005;-81
2022/04/28 07:27:35;;;;;;;2.42;1.17;;;;;;;12.82;77.46;99318.03;1658325;86;21016;-83
2022/04/28 07:30:08;;;;;;;1.52;1.15;;;;;;;12.93;77.91;99314.65;1652860;85;21081;-81
2022/04/28 07:32:37;;;;;;;6.12;1.40;;;;;;;13.03;76.98;99318.26;1639881;85;21083;-81
2022/04/28 07:35:16;;;;;;;2.70;1.10;;;;;;;13.11;75.66;99314.95;1636809;86;21076;-82
2022/04/28 07:38:02;;;;;;;2.02;1.25;;;;;;;13.14;75.37;99325.30;1620108;86;21179;-80
2022/04/28 07:40:36;;;;;;;4.97;1.50;;;;;;;13.16;75.37;99319.59;1633930;86;21046;-79
2022/04/28 07:43:07;;;;;;;2.02;1.15;;;;;;;13.27;75.20;99324.02;1634419;86;21160;-80
2022/04/28 07:45:34;;;;;;;1.87;1.15;;;;;;;13.37;75.16;99324.61;1615729;87;21047;-80
2022/04/28 07:48:05;;;;;;;6.87;1.20;;;;;;;13.39;74.36;99328.45;1625438;87;21530;-81
2022/04/28 07:50:32;;;;;;;3.70;1.32;;;;;;;13.38;73.30;99328.06;1626818;86;21016;-79
2022/04/28 07:53:01;;;;;;;6.10;1.20;;;;;;;13.47;73.39;99324.70;1623698;87;21083;-79
2022/04/28 07:55:28;;;;;;;5.35;1.15;;;;;;;13.50;73.47;99325.05;1651295;86;21028;-79
2022/04/28 07:57:56;;;;;;;3.47;1.25;;;;;;;13.51;73.81;99326.77;1652595;85;21019;-78
2022/04/28 08:00:25;;;;;;;1.98;1.25;;;;;;;13.51;72.78;99329.38;1638257;86;21068;-79
2022/04/28 08:02:52;;;;;;;1.98;1.00;;;;;;;13.49;71.24;99320.73;1647755;85;21023;-82
2022/04/28 08:05:20;;;;;;;3.45;1.40;;;;;;;13.58;72.10;99328.25;1661415;85;21013;-79
2022/04/28 08:07:48;;;;;;;5.03;1.35;;;;;;;13.62;71.04;99329.84;1634548;86;21477;-79
2022/04/28 08:10:16;;;;;;;9.73;1.50;;;;;;;13.69;71.06;99333.13;1641689;86;21396;-79
2022/04/28 08:12:43;;;;;;;3.98;1.50;;;;;;;13.79;71.24;99329.29;1649776;85;20960;-80
2022/04/28 08:15:12;;;;;;;2.70;1.30;;;;;;;13.88;70.63;99325.49;1642916;85;21060;-78
2022/04/28 08:17:40;;;;;;;4.47;1.20;;;;;;;13.88;70.84;99325.49;1613232;87;21068;-79
2022/04/28 08:20:08;;;;;;;2.87;1.40;;;;;;;13.87;69.41;99321.19;1612038;87;21631;-80
2022/04/28 08:22:35;;;;;;;4.35;0.95;;;;;;;13.92;69.50;99329.23;1617882;87;21086;-79
2022/04/28 08:25:02;;;;;;;2.17;1.10;;;;;;;13.97;69.59;99325.64;1625382;87;21096;-78
2022/04/28 08:27:29;;;;;;;1.82;0.90;;;;;;;14.17;69.49;99321.85;1625055;87;21052;-80
2022/04/28 08:29:56;;;;;;;2.02;1.00;;;;;;;14.16;69.55;99314.06;1604104;88;21039;-80
2022/04/28 08:32:23;;;;;;;3.60;0.82;;;;;;;14.39;69.03;99322.37;1602544;88;21559;-81
2022/04/28 08:34:50;;;;;;;2.25;1.02;;;;;;;14.56;69.05;99323.04;1615657;88;21087;-79
2022/04/28 08:37:17;;;;;;;1.55;1.07;;;;;;;14.63;67.73;99322.78;1619627;88;21528;-79
2022/04/28 08:39:44;;;;;;;8.18;1.30;;;;;;;14.66;68.24;99323.99;1624334;87;21107;-79
2022/04/28 08:42:17;;;;;;;3.58;1.52;;;;;;;14.82;68.78;99323.37;1597574;87;21048;-79
2022/04/28 08:44:45;;;;;;;2.67;1.02;;;;;;;14.78;68.88;99329.65;1613631;89;21052;-79
2022/04/28 08:47:14;;;;;;;7.42;1.40;;;;;;;14.78;68.94;99322.67;1609908;88;21024;-79
2022/04/28 08:49:42;;;;;;;2.30;1.02;;;;;;;14.77;68.31;99323.56;1634722;85;21228;-79
2022/04/28 08:52:27;;;;;;;5.83;1.30;;;;;;;14.69;67.97;99318.62;1678559;84;21030;-79
2022/04/28 08:54:55;;;;;;;2.00;1.10;;;;;;;14.68;67.71;99328.71;1679178;84;21065;-78
2022/04/28 08:57:23;;;;;;;1.90;1.00;;;;;;;14.59;68.09;99319.05;1678654;85;20987;-79
2022/04/28 08:59:51;;;;;;;2.37;1.30;;;;;;;14.58;67.63;99325.17;1679086;85;21074;-79
2022/04/28 09:02:29;;;;;;;2.83;1.30;;;;;;;14.60;68.02;99318.13;1688648;83;21575;-81
2022/04/28 09:05:04;;;;;;;5.58;1.40;;;;;;;14.66;67.77;99320.50;1692049;83;21515;-80
2022/04/28 09:07:44;;;;;;;1.95;1.30;;;;;;;14.71;67.73;99318.57;1696787;83;21126;-79
2022/04/28 09:10:31;;;;;;;2.25;1.20;;;;;;;14.63;68.12;99318.02;1701014;83;21028;-79
2022/04/28 09:16:04;;;;;;;3.75;1.07;;;;;;;14.68;68.23;99320.86;1673131;85;21051;-78
2022/04/28 09:18:32;;;;;;;8.95;1.35;;;;;;;14.75;68.65;99331.94;1681570;84;21023;-78
2022/04/28 09:20:59;;;;;;;4.85;1.10;;;;;;;14.85;69.13;99324.13;1655833;85;21038;-81
2022/04/28 09:23:25;;;;;;;2.22;1.17;;;;;;;15.00;67.73;99328.34;1681419;84;21514;-79
2022/04/28 09:25:53;;;;;;;5.85;1.40;;;;;;;15.02;66.75;99325.22;1681412;85;21054;-79
2022/04/28 09:28:22;;;;;;;2.02;0.90;;;;;;;15.07;66.85;99328.05;1681700;84;21002;-79
2022/04/28 09:30:51;;;;;;;1.67;1.00;;;;;;;15.10;66.19;99317.47;1656700;85;21026;-80
2022/04/28 09:33:33;;;;;;;6.87;1.10;;;;;;;15.15;66.20;99317.73;1691954;84;21055;-79
2022/04/28 09:36:01;;;;;;;1.05;0.88;;;;;;;15.26;65.18;99319.02;1689995;84;21017;-79
2022/04/28 09:38:54;;;;;;;1.57;0.88;;;;;;;15.37;63.19;99319.88;1716478;83;21190;-78
2022/04/28 09:44:12;;;;;;;1.92;1.10;;;;;;;15.37;61.53;99322.95;1690267;83;20995;-79
2022/04/28 09:46:41;;;;;;;1.27;0.90;;;;;;;15.41;60.86;99324.06;1694186;83;21130;-78
2022/04/28 09:49:14;;;;;;;1.50;0.80;;;;;;;15.61;60.92;99323.70;1679207;83;21071;-79
2022/04/28 09:51:43;;;;;;;3.90;0.90;;;;;;;15.86;61.62;99327.02;1688561;83;20988;-80
2022/04/28 09:54:14;;;;;;;1.95;0.80;;;;;;;16.12;58.50;99315.01;1665892;83;21051;-79
2022/04/28 09:56:51;;;;;;;4.12;1.12;;;;;;;16.32;57.26;99324.14;1651629;86;21067;-79
2022/04/28 09:59:21;;;;;;;1.52;0.98;;;;;;;16.39;57.39;99325.55;1632785;86;21033;-80
2022/04/28 10:01:49;;;;;;;8.78;1.37;;;;;;;16.50;57.40;99318.52;1659352;87;21100;-78
2022/04/28 10:04:16;;;;;;;3.37;0.95;;;;;;;16.59;58.20;99316.80;1677666;85;21032;-78
2022/04/28 10:07:06;;;;;;;2.37;1.30;;;;;;;16.71;57.62;99316.66;1686424;85;21087;-79
2022/04/28 10:09:39;;;;;;;9.93;1.37;;;;;;;16.74;57.26;99323.56;1687155;85;20986;-78
2022/04/28 10:12:09;;;;;;;6.95;1.80;;;;;;;16.92;58.27;99319.25;1686852;83;21072;-78
2022/04/28 10:14:56;;;;;;;1.85;0.85;;;;;;;16.92;57.75;99321.41;1692456;83;21085;-78
2022/04/28 10:17:45;;;;;;;2.00;0.90;;;;;;;16.82;55.64;99322.30;1685794;83;21042;-78
2022/04/28 10:20:35;;;;;;;1.62;0.82;;;;;;;17.01;56.28;99331.48;1685642;83;21940;-78
2022/04/28 10:23:08;;;;;;;3.10;1.02;;;;;;;17.03;55.23;99330.07;1710984;83;21073;-78
2022/04/28 10:34:32;;;;;;;4.83;1.10;;;;;;;17.00;55.46;99310.06;1671017;83;21007;-77
2022/04/28 10:37:04;;;;;;;1.65;1.05;;;;;;;17.01;54.20;99310.91;1671652;83;21073;-79
2022/04/28 10:39:40;;;;;;;1.80;1.10;;;;;;;17.06;54.60;99310.23;1685637;85;20995;-78
2022/04/28 10:42:27;;;;;;;1.10;1.00;;;;;;;17.12;54.10;99309.09;1688664;83;21791;-78
2022/04/28 10:44:56;;;;;;;2.40;1.02;;;;;;;17.37;53.23;99310.04;1682648;84;21548;-79
2022/04/28 10:47:37;;;;;;;2.70;1.20;;;;;;;17.64;52.49;99307.81;1670833;86;21324;-77
2022/04/28 10:50:22;;;;;;;2.33;1.02;;;;;;;17.81;52.89;99325.38;1633748;86;21122;-78
2022/04/28 10:52:56;;;;;;;3.45;1.00;;;;;;;17.91;52.17;99304.75;1652387;87;21594;-78
2022/04/28 10:55:30;;;;;;;4.08;1.20;;;;;;;17.85;50.49;99298.86;1627747;86;21071;-79
2022/04/28 10:57:55;;;;;;;2.05;0.90;;;;;;;17.88;48.95;99302.63;1652551;85;21570;-79
2022/04/28 11:00:34;;;;;;;2.52;1.22;;;;;;;17.87;49.26;99308.00;1664933;86;21035;-79
2022/04/28 11:03:02;;;;;;;4.70;1.40;;;;;;;17.99;49.21;99301.25;1664915;86;21590;-78
2022/04/28 11:05:35;;;;;;;2.58;1.10;;;;;;;17.95;48.14;99304.50;1656217;85;21084;-78
2022/04/28 11:08:02;;;;;;;2.35;1.10;;;;;;;17.79;47.91;99308.36;1666611;85;21062;-78
2022/04/28 11:10:29;;;;;;;4.60;1.40;;;;;;;17.67;48.88;99304.57;1613411;88;21028;-76
2022/04/28 11:12:56;;;;;;;2.00;1.22;;;;;;;17.75;48.07;99307.28;1664876;86;21582;-78
2022/04/28 11:15:25;;;;;;;2.62;1.30;;;;;;;17.82;48.87;99308.18;1654945;86;21007;-78
2022/04/28 11:17:52;;;;;;;2.90;1.30;;;;;;;17.81;46.80;99310.44;1664771;86;21022;-76
2022/04/28 11:20:21;;;;;;;8.48;1.52;;;;;;;17.91;46.88;99305.59;1661644;86;21029;-78
2022/04/28 11:22:54;;;;;;;4.00;1.60;;;;;;;18.13;47.99;99306.63;1676263;85;21042;-77
2022/04/28 11:25:22;;;;;;;2.15;1.30;;;;;;;18.19;45.85;99306.30;1623186;88;21032;-78
2022/04/28 11:27:50;;;;;;;2.55;1.37;;;;;;;18.33;47.32;99298.14;1664814;86;21068;-78
2022/04/28 11:30:26;;;;;;;3.22;1.35;;;;;;;18.45;45.06;99310.64;1663986;84;21059;-77
2022/04/28 11:32:57;;;;;;;2.50;1.32;;;;;;;18.46;44.21;99311.88;1677989;85;21606;-76
2022/04/28 11:35:32;;;;;;;2.65;1.70;;;;;;;18.52;45.83;99317.25;1638143;86;21035;-77
2022/04/28 11:37:59;;;;;;;5.22;1.70;;;;;;;18.52;45.86;99324.31;1679023;85;21574;-78
2022/04/28 11:40:26;;;;;;;3.02;1.30;;;;;;;18.37;46.04;99335.21;1664639;85;21011;-78
2022/04/28 11:42:59;;;;;;;3.85;1.82;;;;;;;18.08;44.64;99333.63;1664984;85;21527;-78
2022/04/28 11:45:29;;;;;;;3.77;1.62;;;;;;;17.94;46.13;99347.50;1666112;85;21023;-78
2022/04/28 11:48:01;;;;;;;3.60;1.60;;;;;;;17.86;46.65;99336.52;1656322;86;21062;-78
2022/04/28 11:50:32;;;;;;;4.40;1.40;;;;;;;17.68;45.28;99333.86;1672080;83;21126;-77
2022/04/28 11:53:09;;;;;;;2.62;1.60;;;;;;;17.43;45.06;99339.98;1686472;84;21099;-78
2022/04/28 11:55:40;;;;;;;6.10;1.60;;;;;;;17.23;45.74;99329.11;1681933;84;21071;-78
2022/04/28 11:58:10;;;;;;;4.33;1.55;;;;;;;17.08;46.54;99328.09;1686312;84;21039;-78
2022/04/28 12:00:39;;;;;;;6.22;1.77;;;;;;;16.98;47.34;99336.02;1686441;84;21463;-78
2022/04/28 12:03:06;;;;;;;7.58;1.65;;;;;;;17.03;47.68;99330.95;1686266;84;21075;-79
2022/04/28 12:05:34;;;;;;;5.47;1.57;;;;;;;17.05;47.73;99334.78;1686422;84;21104;-78
2022/04/28 12:08:03;;;;;;;5.92;2.47;;;;;;;16.90;47.61;99349.05;1686334;84;21079;-78
2022/04/28 12:16:16;;;;;;;8.63;2.30;;;;;;;16.15;57.37;99350.27;1686228;84;21035;-78
2022/04/28 12:21:35;;;;;;;6.00;2.55;;;;;;;15.67;58.92;99349.18;1665118;84;21543;-77
2022/04/28 12:24:10;;;;;;;5.97;2.90;;;;;;;15.39;61.92;99355.18;1695213;84;21539;-78
2022/04/28 12:26:42;;;;;;;5.95;2.75;;;;;;;15.10;63.79;99355.44;1649967;85;21055;-78
2022/04/28 12:29:17;;;;;;;6.70;2.70;;;;;;;14.95;62.91;99364.34;1690368;84;20978;-78